createdAt,value
2023-04-03T00:00:05.287Z,1.38
2023-04-03T00:04:17.482Z,1.27
2023-04-03T00:08:47.273Z,1.26
2023-04-03T00:13:24.938Z,1.23
2023-04-03T00:17:40.266Z,1.24
2023-04-03T00:22:16.031Z,1.20
2023-04-03T00:26:41.764Z,1.17
2023-04-03T00:31:14.226Z,1.16
2023-04-03T00:35:44.918Z,1.16
2023-04-03T00:39:54.176Z,1.11
2023-04-03T00:44:12.400Z,1.10
2023-04-03T00:48:21.567Z,1.10
2023-04-03T00:52:42.003Z,1.06
2023-04-03T00:57:10.778Z,0.97
2023-04-03T01:01:24.483Z,0.93
2023-04-03T01:05:41.522Z,0.84
2023-04-03T01:10:09.795Z,0.84
2023-04-03T01:14:38.763Z,0.82
2023-04-03T01:19:07.711Z,0.72
2023-04-03T01:23:45.653Z,0.75
2023-04-03T01:28:14.442Z,0.73
2023-04-03T01:32:43.339Z,0.61
2023-04-03T01:37:13.128Z,0.60
2023-04-03T01:41:43.153Z,0.57
2023-04-03T01:46:12.200Z,0.50
2023-04-03T01:50:40.892Z,0.46
2023-04-03T01:55:10.527Z,0.48
2023-04-03T01:59:39.521Z,0.45
2023-04-03T02:04:08.602Z,0.46
2023-04-03T02:08:18.844Z,0.41
2023-04-03T02:12:47.923Z,0.38
2023-04-03T02:17:17.065Z,0.39
2023-04-03T02:21:49.353Z,0.36
2023-04-03T02:25:50.189Z,0.34
2023-04-03T02:29:14.424Z,0.34
2023-04-03T02:33:15.321Z,0.39
2023-04-03T02:37:05.271Z,0.37
2023-04-03T02:40:50.603Z,0.35
2023-04-03T02:44:54.439Z,0.29
2023-04-03T02:48:52.327Z,0.26
2023-04-03T02:52:52.167Z,0.23
2023-04-03T02:57:21.048Z,0.21
2023-04-03T03:01:49.863Z,0.22
2023-04-03T03:06:06.874Z,0.21
2023-04-03T03:10:23.949Z,0.20
2023-04-03T03:14:32.593Z,0.20
2023-04-03T03:19:01.604Z,0.18
2023-04-03T03:22:50.557Z,0.14
2023-04-03T03:26:40.178Z,0.16
2023-04-03T03:30:29.002Z,0.09
2023-04-03T03:34:18.536Z,0.08
2023-04-03T03:38:13.007Z,0.07
2023-04-03T03:42:10.062Z,0.05
2023-04-03T03:46:18.683Z,0.05
2023-04-03T03:50:08.312Z,0.02
2023-04-03T03:53:52.074Z,-0.03
2023-04-03T03:57:44.781Z,-0.04
2023-04-03T04:01:33.893Z,-0.09
2023-04-03T04:06:02.449Z,-0.10
2023-04-03T04:09:53.722Z,-0.17
2023-04-03T04:14:02.686Z,-0.20
2023-04-03T04:18:08.687Z,-0.26
2023-04-03T04:22:32.577Z,-0.28
2023-04-03T04:26:41.212Z,-0.28
2023-04-03T04:30:31.015Z,-0.25
2023-04-03T04:34:37.332Z,-0.27
2023-04-03T04:38:28.501Z,-0.22
2023-04-03T04:42:38.692Z,-0.22
2023-04-03T04:46:31.667Z,-0.16
2023-04-03T04:50:24.761Z,-0.12
2023-04-03T04:54:13.580Z,-0.10
2023-04-03T04:58:04.159Z,-0.07
2023-04-03T05:01:59.693Z,-0.05
2023-04-03T05:05:49.309Z,0.01
2023-04-03T05:09:40.643Z,0.07
2023-04-03T05:13:31.551Z,0.16
2023-04-03T05:17:23.204Z,0.21
2023-04-03T05:21:13.026Z,0.32
2023-04-03T05:25:04.074Z,0.43
2023-04-03T05:28:53.279Z,0.40
2023-04-03T05:32:48.998Z,0.42
2023-04-03T05:36:39.040Z,0.51
2023-04-03T05:40:29.718Z,0.62
2023-04-03T05:44:38.898Z,0.68
2023-04-03T05:48:27.997Z,0.77
2023-04-03T05:52:36.959Z,0.85
2023-04-03T05:56:26.852Z,0.88
2023-04-03T06:00:39.812Z,0.96
2023-04-03T06:04:50.961Z,1.09
2023-04-03T06:08:41.878Z,1.20
2023-04-03T06:12:52.981Z,1.22
2023-04-03T06:17:19.558Z,1.42
2023-04-03T06:21:13.826Z,1.58
2023-04-03T06:25:22.817Z,1.71
2023-04-03T06:29:12.158Z,1.74
2023-04-03T06:33:21.367Z,1.89
2023-04-03T06:37:35.188Z,2.10
2023-04-03T06:41:46.893Z,2.13
2023-04-03T06:45:36.919Z,2.20
2023-04-03T06:49:46.045Z,2.49
2023-04-03T06:53:55.111Z,2.37
2023-04-03T06:57:47.795Z,2.42
2023-04-03T07:01:37.411Z,2.58
2023-04-03T07:05:34.654Z,2.69
2023-04-03T07:10:03.607Z,2.84
2023-04-03T07:14:14.467Z,3.77
2023-04-03T07:18:44.589Z,3.53
2023-04-03T07:23:15.898Z,3.22
2023-04-03T07:27:46.048Z,3.54
2023-04-03T07:32:21.853Z,4.40
2023-04-03T07:36:51.323Z,3.88
2023-04-03T07:41:21.523Z,3.78
2023-04-03T07:45:52.068Z,4.53
2023-04-03T07:50:21.961Z,3.97
2023-04-03T07:54:51.448Z,3.51
2023-04-03T07:59:21.911Z,3.46
2023-04-03T08:03:51.325Z,4.12
2023-04-03T08:08:21.425Z,4.26
2023-04-03T08:12:48.824Z,4.33
2023-04-03T08:17:19.061Z,5.49
2023-04-03T08:24:58.693Z,5.96
2023-04-03T08:28:48.659Z,5.78
2023-04-03T08:32:37.519Z,5.30
2023-04-03T08:35:57.627Z,5.09
2023-04-03T08:39:45.459Z,4.45
2023-04-03T08:43:40.817Z,4.42
2023-04-03T08:47:39.362Z,4.84
2023-04-03T08:51:23.503Z,4.38
2023-04-03T08:54:56.635Z,4.42
2023-04-03T08:58:42.521Z,4.47
2023-04-03T09:02:31.668Z,4.64
2023-04-03T09:06:19.697Z,5.31
2023-04-03T09:10:18.381Z,5.01
2023-04-03T09:14:10.174Z,5.05
2023-04-03T09:17:52.968Z,4.44
2023-04-03T09:21:50.268Z,4.24
2023-04-03T09:25:42.654Z,4.73
2023-04-03T09:29:24.796Z,5.70
2023-04-03T09:33:12.710Z,6.34
2023-04-03T09:36:55.429Z,6.36
2023-04-03T09:41:07.144Z,6.04
2023-04-03T09:49:07.368Z,6.01
2023-04-03T09:53:25.990Z,5.58
2023-04-03T09:57:55.404Z,5.11
2023-04-03T10:02:24.713Z,5.15
2023-04-03T10:06:59.298Z,5.05
2023-04-03T10:11:29.191Z,5.52
2023-04-03T10:15:58.579Z,6.02
2023-04-03T10:20:36.889Z,6.30
2023-04-03T10:25:17.378Z,6.20
2023-04-03T10:30:01.497Z,6.39
2023-04-03T10:34:29.513Z,5.90
2023-04-03T10:39:19.122Z,5.73
2023-04-03T10:43:48.860Z,6.04
2023-04-03T10:48:36.880Z,6.53
2023-04-03T10:53:09.147Z,6.46
2023-04-03T11:02:48.944Z,7.52
2023-04-03T11:07:20.271Z,6.64
2023-04-03T11:11:49.406Z,6.61
2023-04-03T11:15:59.132Z,6.66
2023-04-03T11:20:35.448Z,6.28
2023-04-03T11:24:38.241Z,6.76
2023-04-03T11:29:05.464Z,6.39
2023-04-03T11:33:39.154Z,7.19
2023-04-03T11:38:05.298Z,7.65
2023-04-03T11:42:33.474Z,7.32
2023-04-03T11:46:53.263Z,6.45
2023-04-03T11:51:29.556Z,6.24
2023-04-03T11:56:04.635Z,6.04
2023-04-03T12:00:07.147Z,6.57
2023-04-03T12:04:46.171Z,6.65
2023-04-03T12:10:18.253Z,6.09
2023-04-03T12:14:09.448Z,6.27
2023-04-03T12:17:52.255Z,6.62
2023-04-03T12:21:53.257Z,6.85
2023-04-03T12:25:41.005Z,7.06
2023-04-03T12:29:20.585Z,6.81
2023-04-03T12:33:21.421Z,7.34
2023-04-03T12:37:19.629Z,7.89
2023-04-03T12:45:51.280Z,6.21
2023-04-03T12:50:07.322Z,7.34
2023-04-03T12:54:24.922Z,7.81
2023-04-03T12:58:28.745Z,7.99
2023-04-03T13:02:16.868Z,8.06
2023-04-03T13:06:08.306Z,6.99
2023-04-03T13:09:56.160Z,6.92
2023-04-03T13:13:28.823Z,6.45
2023-04-03T13:17:13.455Z,6.60
2023-04-03T13:21:16.549Z,7.70
2023-04-03T13:25:04.133Z,7.17
2023-04-03T13:28:45.900Z,6.79
2023-04-03T13:32:26.930Z,6.66
2023-04-03T13:35:49.101Z,7.25
2023-04-03T13:39:18.259Z,7.54
2023-04-03T13:43:21.093Z,7.41
2023-04-03T13:47:13.273Z,7.22
2023-04-03T13:51:04.262Z,7.82
2023-04-03T13:55:03.093Z,7.39
2023-04-03T13:58:52.216Z,7.10
2023-04-03T14:02:45.392Z,6.79
2023-04-03T14:06:33.215Z,6.76
2023-04-03T14:10:22.014Z,7.34
2023-04-03T14:14:07.773Z,7.41
2023-04-03T14:17:35.531Z,6.92
2023-04-03T14:21:16.504Z,6.73
2023-04-03T14:24:48.874Z,7.00
2023-04-03T14:28:41.391Z,7.23
2023-04-03T14:32:24.113Z,6.94
2023-04-03T14:36:12.045Z,6.59
2023-04-03T14:39:39.316Z,6.92
2023-04-03T14:43:19.163Z,7.44
2023-04-03T14:47:05.343Z,7.70
2023-04-03T14:50:39.484Z,6.54
2023-04-03T14:54:20.168Z,5.94
2023-04-03T14:58:05.506Z,5.83
2023-04-03T15:01:31.953Z,6.15
2023-04-03T15:05:20.014Z,7.32
2023-04-03T15:09:05.660Z,7.68
2023-04-03T15:12:52.738Z,7.70
2023-04-03T15:16:35.465Z,6.71
2023-04-03T15:20:18.593Z,6.39
2023-04-03T15:23:46.881Z,6.16
2023-04-03T15:27:58.690Z,6.00
2023-04-03T15:31:08.331Z,6.05
2023-04-03T15:34:57.068Z,6.63
2023-04-03T15:38:31.389Z,6.93
2023-04-03T15:42:10.598Z,6.92
2023-04-03T15:45:27.703Z,6.32
2023-04-03T15:48:50.750Z,6.12
2023-04-03T15:52:31.288Z,5.92
2023-04-03T15:56:24.214Z,5.70
2023-04-03T15:59:54.574Z,5.66
2023-04-03T16:03:08.939Z,5.61
2023-04-03T16:06:49.087Z,5.79
2023-04-03T16:10:28.232Z,6.18
2023-04-03T16:14:00.848Z,6.53
2023-04-03T16:17:11.762Z,6.88
2023-04-03T16:20:44.115Z,6.27
2023-04-03T16:24:30.717Z,6.11
2023-04-03T16:27:44.777Z,5.92
2023-04-03T16:31:29.558Z,5.67
2023-04-03T16:38:42.146Z,5.48
2023-04-03T16:42:30.097Z,5.55
2023-04-03T16:46:01.884Z,5.54
2023-04-03T16:49:36.709Z,5.56
2023-04-03T16:52:58.932Z,5.39
2023-04-03T16:56:35.705Z,5.28
2023-04-03T17:00:24.334Z,5.20
2023-04-03T17:03:44.561Z,5.04
2023-04-03T17:07:11.170Z,5.06
2023-04-03T17:10:51.376Z,5.03
2023-04-03T17:14:41.083Z,5.07
2023-04-03T17:18:17.704Z,4.99
2023-04-03T17:21:58.425Z,5.00
2023-04-03T17:25:21.581Z,4.92
2023-04-03T17:28:58.004Z,4.94
2023-04-03T17:32:47.969Z,4.95
2023-04-03T17:36:52.473Z,4.93
2023-04-03T17:40:44.178Z,4.79
2023-04-03T17:44:32.117Z,4.79
2023-04-03T17:48:40.487Z,4.76
2023-04-03T17:52:24.547Z,4.63
2023-04-03T17:56:01.948Z,4.62
2023-04-03T17:59:55.974Z,4.62
2023-04-03T18:04:04.888Z,4.62
2023-04-03T18:08:25.058Z,4.60
2023-04-03T18:12:36.009Z,4.60
2023-04-03T18:16:52.658Z,4.60
2023-04-03T18:21:23.686Z,4.57
2023-04-03T18:25:26.569Z,4.64
2023-04-03T18:29:26.173Z,4.66
2023-04-03T18:33:25.501Z,4.64
2023-04-03T18:37:37.094Z,4.59
2023-04-03T18:42:29.272Z,4.57
2023-04-03T18:47:03.495Z,4.48
2023-04-03T18:58:12.670Z,4.50
2023-04-03T19:02:50.344Z,4.38
2023-04-03T19:07:20.746Z,4.31
2023-04-03T19:11:51.800Z,4.34
2023-04-03T19:16:21.047Z,4.34
2023-04-03T19:20:54.111Z,4.34
2023-04-03T19:25:22.694Z,4.33
2023-04-03T19:36:13.353Z,4.18
2023-04-03T19:40:03.868Z,4.04
2023-04-03T19:50:53.886Z,4.05
2023-04-03T19:54:23.882Z,3.93
2023-04-03T19:57:36.004Z,3.84
2023-04-03T20:01:20.931Z,3.83
2023-04-03T20:04:58.788Z,3.81
2023-04-03T20:08:16.565Z,3.77
2023-04-03T20:12:11.288Z,3.70
2023-04-03T20:15:41.113Z,3.67
2023-04-03T20:19:22.835Z,3.69
2023-04-03T20:23:01.198Z,3.67
2023-04-03T20:26:49.658Z,3.66
2023-04-03T20:30:38.681Z,3.69
2023-04-03T20:34:15.684Z,3.68
2023-04-03T20:38:04.195Z,3.64
2023-04-03T20:41:44.880Z,3.66
2023-04-03T20:45:27.103Z,3.63
2023-04-03T20:53:03.523Z,3.48
2023-04-03T20:56:49.384Z,3.36
2023-04-03T21:00:25.047Z,3.24
2023-04-03T21:04:04.651Z,3.06
2023-04-03T21:07:49.507Z,2.96
2023-04-03T21:11:36.857Z,2.83
2023-04-03T21:15:25.864Z,2.79
2023-04-03T21:19:52.634Z,2.71
2023-04-03T21:24:21.533Z,2.45
2023-04-03T21:28:53.641Z,2.34
2023-04-03T21:33:21.697Z,2.25
2023-04-03T21:37:51.133Z,2.25
2023-04-03T21:42:21.523Z,2.26
2023-04-03T21:46:52.023Z,2.30
2023-04-03T21:51:31.883Z,2.27
2023-04-03T21:56:04.042Z,2.34
2023-04-03T22:00:32.597Z,2.46
2023-04-03T22:05:03.496Z,2.49
2023-04-03T22:09:32.119Z,2.58
2023-04-03T22:14:03.198Z,2.57
2023-04-03T22:18:31.955Z,2.49
2023-04-03T22:23:02.020Z,2.44
2023-04-03T22:27:35.321Z,2.35
2023-04-03T22:32:04.010Z,2.33
2023-04-03T22:36:32.393Z,2.28
2023-04-03T22:40:13.398Z,2.21
2023-04-03T22:45:24.265Z,2.23
2023-04-03T22:49:53.293Z,1.97
2023-04-03T22:54:25.868Z,1.93
2023-04-03T22:58:54.790Z,1.80
2023-04-03T23:03:30.903Z,1.69
2023-04-03T23:08:01.259Z,1.52
2023-04-03T23:12:32.637Z,1.23
2023-04-03T23:22:01.174Z,0.99
2023-04-03T23:26:09.011Z,0.97
2023-04-03T23:29:53.326Z,0.87
2023-04-03T23:33:12.916Z,0.72
2023-04-03T23:37:17.383Z,0.59
2023-04-03T23:41:15.064Z,0.61
2023-04-03T23:45:04.030Z,0.56
2023-04-03T23:49:07.233Z,0.55
2023-04-03T23:53:35.702Z,0.45
2023-04-03T23:58:13.124Z,0.43
